PWSweather.com
Personal Weather Stations
Station Observations
INORDPAS37
Bondues, BonduesFR 59910

BonduesBonduesFR 59910

Lat: 50.7, Lon: 3.09

Elevation: 102

Station Type: Netatmo

http://bondues.meteoamikuze.com

High Low Average
Temperature 49.1°F9.5°C 43.3°F6.3°C 45.9°F7.7°C
Dew Point 39.0°F3.9°C 33.6°F0.9°C 36.0°F2.2°C
Winds 3.8 mph 6.1 kmh 1.3 mph 2.1 kmh 3.0 mph SW4.8 kmh SW
Wind Gusts 10.5 mph16.9 kmh 3.1 mph5.0 kmh 6.0 mph9.7 kmh
Humidity 75% 72% 74%
Pressure 29.92 in1013.2 mb 29.86 in1011.2 mb -
Precipitation 0.01 in0.3 mm - -
Hour Temp Dew Point Humidity Winds Wind Gusts Pressure Precip Precip Rate Daily Precip Total
12:07 AM 45.7°F7.6°C 35.2°F1.8°C 72% 3.8 mph SW6.1 kmh SW 8.7 mph14.0 kmh 29.88 in1011.9 mb 0.00 in0.0 mm 0.00 in0.0 mm 0.00 in0.0 mm
12:27 AM 45.5°F7.5°C 35.1°F1.7°C 72% 3.1 mph SW5.0 kmh SW 7.4 mph11.9 kmh 29.88 in1011.9 mb 0.00 in0.0 mm 0.01 in0.3 mm 0.00 in0.0 mm
12:47 AM 45.5°F7.5°C 35.4°F1.9°C 73% 3.1 mph SW5.0 kmh SW 5.6 mph9.0 kmh 29.88 in1011.9 mb 0.00 in0.0 mm 0.00 in0.0 mm 0.00 in0.0 mm
01:08 AM 45.5°F7.5°C 35.4°F1.9°C 73% 2.5 mph SW4.0 kmh SW 8.1 mph13.0 kmh 29.89 in1012.2 mb 0.00 in0.0 mm 0.00 in0.0 mm 0.00 in0.0 mm
01:28 AM 45.7°F7.6°C 35.6°F2.0°C 73% 2.5 mph SW4.0 kmh SW 5.6 mph9.0 kmh 29.90 in1012.5 mb 0.00 in0.0 mm 0.00 in0.0 mm 0.00 in0.0 mm
01:49 AM 45.7°F7.6°C 35.6°F2.0°C 73% 3.1 mph SW5.0 kmh SW 6.9 mph11.1 kmh 29.90 in1012.5 mb 0.00 in0.0 mm 0.00 in0.0 mm 0.00 in0.0 mm
02:08 AM 45.7°F7.6°C 35.6°F2.0°C 73% 2.5 mph SW4.0 kmh SW 4.9 mph7.9 kmh 29.90 in1012.5 mb 0.00 in0.0 mm 0.00 in0.0 mm 0.00 in0.0 mm
02:25 AM 45.7°F7.6°C 35.6°F2.0°C 73% 3.1 mph SW5.0 kmh SW 8.1 mph13.0 kmh 29.90 in1012.5 mb 0.00 in0.0 mm 0.00 in0.0 mm 0.00 in0.0 mm
02:45 AM 45.3°F7.4°C 35.2°F1.8°C 73% 2.5 mph SW4.0 kmh SW 4.9 mph7.9 kmh 29.91 in1012.9 mb 0.00 in0.0 mm 0.00 in0.0 mm 0.00 in0.0 mm
03:06 AM 45.3°F7.4°C 35.2°F1.8°C 73% 2.5 mph SW4.0 kmh SW 5.6 mph9.0 kmh 29.91 in1012.9 mb 0.00 in0.0 mm 0.00 in0.0 mm 0.00 in0.0 mm
03:26 AM 45.1°F7.3°C 35.4°F1.9°C 74% 3.8 mph SW6.1 kmh SW 8.7 mph14.0 kmh 29.91 in1012.9 mb 0.00 in0.0 mm 0.00 in0.0 mm 0.00 in0.0 mm
03:46 AM 45.1°F7.3°C 35.4°F1.9°C 74% 3.8 mph SW6.1 kmh SW 7.4 mph11.9 kmh 29.90 in1012.5 mb 0.00 in0.0 mm 0.00 in0.0 mm 0.00 in0.0 mm
04:06 AM 45.0°F7.2°C 35.2°F1.8°C 74% 3.1 mph SW5.0 kmh SW 7.4 mph11.9 kmh 29.90 in1012.5 mb 0.00 in0.0 mm 0.00 in0.0 mm 0.00 in0.0 mm
04:27 AM 44.8°F7.1°C 35.1°F1.7°C 74% 3.1 mph SW5.0 kmh SW 8.7 mph14.0 kmh 29.91 in1012.9 mb 0.00 in0.0 mm 0.00 in0.0 mm 0.00 in0.0 mm
04:46 AM 45.0°F7.2°C 35.2°F1.8°C 74% 3.1 mph SW5.0 kmh SW 6.9 mph11.1 kmh 29.90 in1012.5 mb 0.00 in0.0 mm 0.00 in0.0 mm 0.00 in0.0 mm
05:07 AM 45.0°F7.2°C 35.2°F1.8°C 74% 3.1 mph SW5.0 kmh SW 8.1 mph13.0 kmh 29.90 in1012.5 mb 0.00 in0.0 mm 0.00 in0.0 mm 0.00 in0.0 mm
05:27 AM 45.1°F7.3°C 35.4°F1.9°C 74% 3.1 mph SW5.0 kmh SW 6.9 mph11.1 kmh 29.91 in1012.9 mb 0.00 in0.0 mm 0.00 in0.0 mm 0.00 in0.0 mm
05:48 AM 45.0°F7.2°C 35.2°F1.8°C 74% 1.8 mph SW2.9 kmh SW 4.9 mph7.9 kmh 29.90 in1012.5 mb 0.00 in0.0 mm 0.00 in0.0 mm 0.00 in0.0 mm
06:08 AM 45.0°F7.2°C 35.2°F1.8°C 74% 3.1 mph SW5.0 kmh SW 8.1 mph13.0 kmh 29.90 in1012.5 mb 0.00 in0.0 mm 0.00 in0.0 mm 0.00 in0.0 mm
06:28 AM 45.0°F7.2°C 35.2°F1.8°C 74% 2.5 mph SW4.0 kmh SW 7.4 mph11.9 kmh 29.90 in1012.5 mb 0.00 in0.0 mm 0.00 in0.0 mm 0.00 in0.0 mm
06:49 AM 44.8°F7.1°C 35.1°F1.7°C 74% 1.8 mph SW2.9 kmh SW 4.9 mph7.9 kmh 29.90 in1012.5 mb 0.00 in0.0 mm 0.00 in0.0 mm 0.00 in0.0 mm
07:08 AM 44.6°F7.0°C 34.9°F1.6°C 74% 3.1 mph SW5.0 kmh SW 4.9 mph7.9 kmh 29.90 in1012.5 mb 0.00 in0.0 mm 0.00 in0.0 mm 0.00 in0.0 mm
07:29 AM 44.8°F7.1°C 35.1°F1.7°C 74% 3.1 mph SW5.0 kmh SW 7.4 mph11.9 kmh 29.90 in1012.5 mb 0.00 in0.0 mm 0.00 in0.0 mm 0.00 in0.0 mm
07:49 AM 44.8°F7.1°C 35.1°F1.7°C 74% 2.5 mph SW4.0 kmh SW 7.4 mph11.9 kmh 29.90 in1012.5 mb 0.00 in0.0 mm 0.00 in0.0 mm 0.00 in0.0 mm
08:15 AM 44.8°F7.1°C 35.1°F1.7°C 74% 1.8 mph SW2.9 kmh SW 4.9 mph7.9 kmh 29.90 in1012.5 mb 0.00 in0.0 mm 0.00 in0.0 mm 0.00 in0.0 mm
08:35 AM 44.6°F7.0°C 34.9°F1.6°C 74% 2.5 mph SW4.0 kmh SW 6.9 mph11.1 kmh 29.90 in1012.5 mb 0.00 in0.0 mm 0.00 in0.0 mm 0.00 in0.0 mm
08:55 AM 44.6°F7.0°C 34.9°F1.6°C 74% 2.5 mph SW4.0 kmh SW 5.6 mph9.0 kmh 29.90 in1012.5 mb 0.00 in0.0 mm 0.00 in0.0 mm 0.00 in0.0 mm
09:15 AM 44.8°F7.1°C 35.4°F1.9°C 75% 3.8 mph SSW6.1 kmh SSW 8.7 mph14.0 kmh 29.90 in1012.5 mb 0.00 in0.0 mm 0.00 in0.0 mm 0.00 in0.0 mm
09:35 AM 45.1°F7.3°C 35.8°F2.1°C 75% 3.1 mph SW5.0 kmh SW 5.6 mph9.0 kmh 29.90 in1012.5 mb 0.00 in0.0 mm 0.00 in0.0 mm 0.00 in0.0 mm
09:55 AM 45.3°F7.4°C 36.0°F2.2°C 75% 3.1 mph SW5.0 kmh SW 5.6 mph9.0 kmh 29.90 in1012.5 mb 0.00 in0.0 mm 0.00 in0.0 mm 0.00 in0.0 mm
10:01 AM 45.5°F7.5°C 36.1°F2.3°C 75% 2.5 mph SW4.0 kmh SW 5.6 mph9.0 kmh 29.91 in1012.9 mb 0.00 in0.0 mm 0.00 in0.0 mm 0.00 in0.0 mm
10:21 AM 45.7°F7.6°C 36.3°F2.4°C 75% 2.5 mph SW4.0 kmh SW 8.7 mph14.0 kmh 29.90 in1012.5 mb 0.00 in0.0 mm 0.00 in0.0 mm 0.00 in0.0 mm
10:41 AM 46.0°F7.8°C 36.7°F2.6°C 75% 2.5 mph SW4.0 kmh SW 6.9 mph11.1 kmh 29.91 in1012.9 mb 0.00 in0.0 mm 0.00 in0.0 mm 0.00 in0.0 mm
11:01 AM 46.4°F8.0°C 37.0°F2.8°C 75% 2.5 mph SW4.0 kmh SW 4.9 mph7.9 kmh 29.91 in1012.9 mb 0.00 in0.0 mm 0.00 in0.0 mm 0.00 in0.0 mm
11:22 AM 46.9°F8.3°C 37.6°F3.1°C 75% 2.5 mph SW4.0 kmh SW 7.4 mph11.9 kmh 29.91 in1012.9 mb 0.00 in0.0 mm 0.00 in0.0 mm 0.00 in0.0 mm
11:42 AM 47.1°F8.4°C 37.8°F3.2°C 75% 3.1 mph SW5.0 kmh SW 10.5 mph16.9 kmh 29.90 in1012.5 mb 0.00 in0.0 mm 0.00 in0.0 mm 0.00 in0.0 mm
12:02 PM 47.5°F8.6°C 38.1°F3.4°C 75% 2.5 mph SW4.0 kmh SW 9.4 mph15.1 kmh 29.90 in1012.5 mb 0.00 in0.0 mm 0.00 in0.0 mm 0.00 in0.0 mm
12:23 PM 47.8°F8.8°C 38.5°F3.6°C 75% 3.1 mph SSW5.0 kmh SSW 9.4 mph15.1 kmh 29.88 in1011.9 mb 0.00 in0.0 mm 0.00 in0.0 mm 0.00 in0.0 mm
12:43 PM 48.2°F9.0°C 38.8°F3.8°C 75% 3.8 mph SW6.1 kmh SW 10.5 mph16.9 kmh 29.89 in1012.2 mb 0.00 in0.0 mm 0.00 in0.0 mm 0.00 in0.0 mm
01:03 PM 48.4°F9.1°C 38.5°F3.6°C 74% 2.5 mph SW4.0 kmh SW 7.4 mph11.9 kmh 29.88 in1011.9 mb 0.00 in0.0 mm 0.00 in0.0 mm 0.00 in0.0 mm
01:23 PM 48.6°F9.2°C 38.7°F3.7°C 74% 3.8 mph SW6.1 kmh SW 9.8 mph15.8 kmh 29.88 in1011.9 mb 0.00 in0.0 mm 0.00 in0.0 mm 0.00 in0.0 mm
01:44 PM 48.7°F9.3°C 38.8°F3.8°C 74% 3.1 mph SW5.0 kmh SW 9.4 mph15.1 kmh 29.88 in1011.9 mb 0.00 in0.0 mm 0.00 in0.0 mm 0.00 in0.0 mm
02:04 PM 48.9°F9.4°C 39.0°F3.9°C 74% 3.1 mph SW5.0 kmh SW 9.4 mph15.1 kmh 29.87 in1011.5 mb 0.00 in0.0 mm 0.00 in0.0 mm 0.00 in0.0 mm
02:24 PM 48.9°F9.4°C 38.7°F3.7°C 73% 3.1 mph SW5.0 kmh SW 8.1 mph13.0 kmh 29.87 in1011.5 mb 0.00 in0.0 mm 0.00 in0.0 mm 0.00 in0.0 mm
02:44 PM 49.1°F9.5°C 38.8°F3.8°C 73% 3.1 mph SW5.0 kmh SW 9.4 mph15.1 kmh 29.86 in1011.2 mb 0.00 in0.0 mm 0.00 in0.0 mm 0.00 in0.0 mm
03:05 PM 48.6°F9.2°C 38.3°F3.5°C 73% 2.5 mph WSW4.0 kmh WSW 4.9 mph7.9 kmh 29.86 in1011.2 mb 0.00 in0.0 mm 0.01 in0.3 mm 0.01 in0.3 mm
03:25 PM 48.2°F9.0°C 37.9°F3.3°C 73% 1.8 mph SW2.9 kmh SW 5.6 mph9.0 kmh 29.87 in1011.5 mb 0.00 in0.0 mm 0.00 in0.0 mm 0.01 in0.3 mm
03:45 PM 48.0°F8.9°C 37.8°F3.2°C 73% 1.8 mph SW2.9 kmh SW 4.3 mph6.9 kmh 29.87 in1011.5 mb 0.00 in0.0 mm 0.00 in0.0 mm 0.01 in0.3 mm
04:06 PM 47.8°F8.8°C 37.6°F3.1°C 73% 1.8 mph SW2.9 kmh SW 3.8 mph6.1 kmh 29.87 in1011.5 mb 0.00 in0.0 mm 0.00 in0.0 mm 0.01 in0.3 mm
04:26 PM 47.5°F8.6°C 37.2°F2.9°C 73% 1.3 mph SW2.1 kmh SW 3.8 mph6.1 kmh 29.87 in1011.5 mb 0.00 in0.0 mm 0.00 in0.0 mm 0.01 in0.3 mm
04:46 PM 47.3°F8.5°C 37.0°F2.8°C 73% 1.8 mph SW2.9 kmh SW 4.3 mph6.9 kmh 29.86 in1011.2 mb 0.00 in0.0 mm 0.00 in0.0 mm 0.01 in0.3 mm
05:06 PM 47.1°F8.4°C 37.0°F2.8°C 73% 1.3 mph SW2.1 kmh SW 3.8 mph6.1 kmh 29.87 in1011.5 mb 0.00 in0.0 mm 0.00 in0.0 mm 0.01 in0.3 mm
05:26 PM 46.9°F8.3°C 36.9°F2.7°C 73% 1.8 mph SW2.9 kmh SW 3.8 mph6.1 kmh 29.87 in1011.5 mb 0.00 in0.0 mm 0.00 in0.0 mm 0.01 in0.3 mm
05:46 PM 46.8°F8.2°C 36.7°F2.6°C 73% 2.5 mph SW4.0 kmh SW 5.6 mph9.0 kmh 29.88 in1011.9 mb 0.00 in0.0 mm 0.00 in0.0 mm 0.01 in0.3 mm
06:07 PM 46.8°F8.2°C 36.7°F2.6°C 73% 1.8 mph SW2.9 kmh SW 6.9 mph11.1 kmh 29.88 in1011.9 mb 0.00 in0.0 mm 0.00 in0.0 mm 0.01 in0.3 mm
06:27 PM 46.4°F8.0°C 36.3°F2.4°C 73% 1.8 mph SW2.9 kmh SW 4.3 mph6.9 kmh 29.89 in1012.2 mb 0.00 in0.0 mm 0.00 in0.0 mm 0.01 in0.3 mm
06:47 PM 46.2°F7.9°C 36.1°F2.3°C 73% 1.8 mph SW2.9 kmh SW 5.6 mph9.0 kmh 29.89 in1012.2 mb 0.00 in0.0 mm 0.00 in0.0 mm 0.01 in0.3 mm
07:08 PM 46.0°F7.8°C 36.0°F2.2°C 73% 1.8 mph SW2.9 kmh SW 5.6 mph9.0 kmh 29.89 in1012.2 mb 0.00 in0.0 mm 0.00 in0.0 mm 0.01 in0.3 mm
07:28 PM 46.0°F7.8°C 36.0°F2.2°C 73% 1.8 mph SW2.9 kmh SW 3.1 mph5.0 kmh 29.90 in1012.5 mb 0.00 in0.0 mm 0.00 in0.0 mm 0.01 in0.3 mm
07:45 PM 45.9°F7.7°C 35.8°F2.1°C 73% 3.1 mph SW5.0 kmh SW 6.9 mph11.1 kmh 29.90 in1012.5 mb 0.00 in0.0 mm 0.00 in0.0 mm 0.01 in0.3 mm
08:05 PM 45.9°F7.7°C 35.8°F2.1°C 73% 2.5 mph SW4.0 kmh SW 5.6 mph9.0 kmh 29.90 in1012.5 mb 0.00 in0.0 mm 0.00 in0.0 mm 0.01 in0.3 mm
08:25 PM 45.7°F7.6°C 35.6°F2.0°C 73% 1.8 mph SW2.9 kmh SW 4.3 mph6.9 kmh 29.90 in1012.5 mb 0.00 in0.0 mm 0.00 in0.0 mm 0.01 in0.3 mm
08:46 PM 45.3°F7.4°C 35.2°F1.8°C 73% 1.8 mph SW2.9 kmh SW 6.9 mph11.1 kmh 29.91 in1012.9 mb 0.00 in0.0 mm 0.00 in0.0 mm 0.01 in0.3 mm
09:05 PM 45.0°F7.2°C 34.9°F1.6°C 73% 2.5 mph SW4.0 kmh SW 4.9 mph7.9 kmh 29.90 in1012.5 mb 0.00 in0.0 mm 0.00 in0.0 mm 0.01 in0.3 mm
09:26 PM 44.6°F7.0°C 34.9°F1.6°C 74% 1.8 mph SW2.9 kmh SW 4.3 mph6.9 kmh 29.90 in1012.5 mb 0.00 in0.0 mm 0.00 in0.0 mm 0.01 in0.3 mm
09:46 PM 44.2°F6.8°C 34.5°F1.4°C 74% 2.5 mph SW4.0 kmh SW 4.9 mph7.9 kmh 29.90 in1012.5 mb 0.00 in0.0 mm 0.00 in0.0 mm 0.01 in0.3 mm
10:06 PM 43.9°F6.6°C 34.2°F1.2°C 74% 1.8 mph SW2.9 kmh SW 4.3 mph6.9 kmh 29.91 in1012.9 mb 0.00 in0.0 mm 0.00 in0.0 mm 0.01 in0.3 mm
10:27 PM 43.5°F6.4°C 33.8°F1.0°C 74% 2.5 mph SW4.0 kmh SW 5.6 mph9.0 kmh 29.91 in1012.9 mb 0.00 in0.0 mm 0.00 in0.0 mm 0.01 in0.3 mm
10:46 PM 43.3°F6.3°C 33.6°F0.9°C 74% 2.5 mph SW4.0 kmh SW 6.9 mph11.1 kmh 29.92 in1013.2 mb 0.00 in0.0 mm 0.00 in0.0 mm 0.01 in0.3 mm
11:07 PM 43.3°F6.3°C 33.6°F0.9°C 74% 1.8 mph SW2.9 kmh SW 4.3 mph6.9 kmh 29.92 in1013.2 mb 0.00 in0.0 mm 0.00 in0.0 mm 0.01 in0.3 mm
11:26 PM 43.3°F6.3°C 33.6°F0.9°C 74% 1.8 mph SW2.9 kmh SW 3.8 mph6.1 kmh 29.92 in1013.2 mb 0.00 in0.0 mm 0.00 in0.0 mm 0.01 in0.3 mm
11:47 PM 43.3°F6.3°C 33.6°F0.9°C 74% 3.1 mph SW5.0 kmh SW 6.9 mph11.1 kmh 29.92 in1013.2 mb 0.00 in0.0 mm 0.00 in0.0 mm 0.01 in0.3 mm